sensor_id;sensor_type;location;lat;lon;timestamp;P1;durP1;ratioP1;P2;durP2;ratioP2
29218;SDS011;16421;50.202;7.852;2023-04-01T00:04:05;5.07;;;1.15;;
29218;SDS011;16421;50.202;7.852;2023-04-01T00:09:10;1.90;;;0.80;;
29218;SDS011;16421;50.202;7.852;2023-04-01T00:14:14;2.67;;;0.98;;
29218;SDS011;16421;50.202;7.852;2023-04-01T00:19:17;4.05;;;0.70;;
29218;SDS011;16421;50.202;7.852;2023-04-01T00:24:22;4.03;;;0.70;;
29218;SDS011;16421;50.202;7.852;2023-04-01T00:29:26;2.88;;;1.08;;
29218;SDS011;16421;50.202;7.852;2023-04-01T00:34:31;2.67;;;0.90;;
29218;SDS011;16421;50.202;7.852;2023-04-01T00:39:36;6.35;;;1.23;;
29218;SDS011;16421;50.202;7.852;2023-04-01T00:44:40;3.60;;;1.08;;
29218;SDS011;16421;50.202;7.852;2023-04-01T00:49:45;4.00;;;0.88;;
29218;SDS011;16421;50.202;7.852;2023-04-01T00:54:54;2.72;;;0.80;;
29218;SDS011;16421;50.202;7.852;2023-04-01T01:00:00;2.50;;;0.85;;
29218;SDS011;16421;50.202;7.852;2023-04-01T01:05:08;2.40;;;0.70;;
29218;SDS011;16421;50.202;7.852;2023-04-01T01:10:20;3.75;;;0.80;;
29218;SDS011;16421;50.202;7.852;2023-04-01T01:15:30;1.58;;;0.50;;
29218;SDS011;16421;50.202;7.852;2023-04-01T01:20:56;3.17;;;0.80;;
29218;SDS011;16421;50.202;7.852;2023-04-01T01:26:16;3.25;;;1.05;;
29218;SDS011;16421;50.202;7.852;2023-04-01T01:31:36;3.08;;;0.88;;
29218;SDS011;16421;50.202;7.852;2023-04-01T01:36:47;1.05;;;0.60;;
29218;SDS011;16421;50.202;7.852;2023-04-01T01:41:55;1.23;;;0.70;;
29218;SDS011;16421;50.202;7.852;2023-04-01T01:47:01;1.05;;;0.52;;
29218;SDS011;16421;50.202;7.852;2023-04-01T01:52:07;2.05;;;0.70;;
29218;SDS011;16421;50.202;7.852;2023-04-01T01:57:11;3.10;;;0.73;;
29218;SDS011;16421;50.202;7.852;2023-04-01T02:02:18;2.17;;;0.50;;
29218;SDS011;16421;50.202;7.852;2023-04-01T02:07:25;2.35;;;0.70;;
29218;SDS011;16421;50.202;7.852;2023-04-01T02:12:32;2.85;;;0.60;;
29218;SDS011;16421;50.202;7.852;2023-04-01T02:17:38;1.88;;;0.60;;
29218;SDS011;16421;50.202;7.852;2023-04-01T02:22:47;1.83;;;0.80;;
29218;SDS011;16421;50.202;7.852;2023-04-01T02:27:53;2.33;;;1.00;;
29218;SDS011;16421;50.202;7.852;2023-04-01T02:32:59;2.63;;;0.82;;
29218;SDS011;16421;50.202;7.852;2023-04-01T02:38:05;2.55;;;0.80;;
29218;SDS011;16421;50.202;7.852;2023-04-01T02:43:10;2.53;;;0.70;;
29218;SDS011;16421;50.202;7.852;2023-04-01T02:48:13;2.17;;;0.80;;
29218;SDS011;16421;50.202;7.852;2023-04-01T02:53:19;2.55;;;0.75;;
29218;SDS011;16421;50.202;7.852;2023-04-01T02:58:22;2.13;;;0.90;;
29218;SDS011;16421;50.202;7.852;2023-04-01T03:03:28;2.53;;;0.80;;
29218;SDS011;16421;50.202;7.852;2023-04-01T03:08:33;2.22;;;0.77;;
29218;SDS011;16421;50.202;7.852;2023-04-01T03:13:37;2.40;;;0.63;;
29218;SDS011;16421;50.202;7.852;2023-04-01T03:18:41;1.83;;;0.68;;
29218;SDS011;16421;50.202;7.852;2023-04-01T03:23:46;2.03;;;0.60;;
29218;SDS011;16421;50.202;7.852;2023-04-01T03:28:50;2.63;;;0.50;;
29218;SDS011;16421;50.202;7.852;2023-04-01T03:33:53;3.47;;;0.70;;
29218;SDS011;16421;50.202;7.852;2023-04-01T03:38:58;3.65;;;0.90;;
29218;SDS011;16421;50.202;7.852;2023-04-01T03:44:10;1.60;;;0.73;;
29218;SDS011;16421;50.202;7.852;2023-04-01T03:49:18;3.33;;;0.77;;
29218;SDS011;16421;50.202;7.852;2023-04-01T03:54:24;1.30;;;0.50;;
29218;SDS011;16421;50.202;7.852;2023-04-01T03:59:28;3.50;;;0.52;;
29218;SDS011;16421;50.202;7.852;2023-04-01T04:04:32;1.30;;;0.47;;
29218;SDS011;16421;50.202;7.852;2023-04-01T04:14:43;2.17;;;0.65;;
29218;SDS011;16421;50.202;7.852;2023-04-01T04:19:47;1.95;;;0.57;;
29218;SDS011;16421;50.202;7.852;2023-04-01T04:24:52;2.40;;;0.38;;
29218;SDS011;16421;50.202;7.852;2023-04-01T04:29:56;1.23;;;0.40;;
29218;SDS011;16421;50.202;7.852;2023-04-01T04:34:59;0.70;;;0.40;;
29218;SDS011;16421;50.202;7.852;2023-04-01T04:40:06;0.35;;;0.35;;
29218;SDS011;16421;50.202;7.852;2023-04-01T04:45:10;0.88;;;0.40;;
29218;SDS011;16421;50.202;7.852;2023-04-01T04:50:22;2.63;;;0.60;;
29218;SDS011;16421;50.202;7.852;2023-04-01T04:55:28;2.22;;;0.40;;
29218;SDS011;16421;50.202;7.852;2023-04-01T05:00:53;1.05;;;0.45;;
29218;SDS011;16421;50.202;7.852;2023-04-01T05:06:01;1.15;;;0.30;;
29218;SDS011;16421;50.202;7.852;2023-04-01T05:11:08;1.00;;;0.35;;
29218;SDS011;16421;50.202;7.852;2023-04-01T05:16:17;1.38;;;0.40;;
29218;SDS011;16421;50.202;7.852;2023-04-01T05:21:23;2.15;;;0.50;;
29218;SDS011;16421;50.202;7.852;2023-04-01T05:31:34;1.07;;;0.50;;
29218;SDS011;16421;50.202;7.852;2023-04-01T05:36:38;0.40;;;0.28;;
29218;SDS011;16421;50.202;7.852;2023-04-01T05:41:44;0.85;;;0.30;;
29218;SDS011;16421;50.202;7.852;2023-04-01T05:46:47;0.30;;;0.30;;
29218;SDS011;16421;50.202;7.852;2023-04-01T05:51:54;0.65;;;0.40;;
29218;SDS011;16421;50.202;7.852;2023-04-01T05:56:59;0.77;;;0.30;;
29218;SDS011;16421;50.202;7.852;2023-04-01T06:02:03;1.45;;;0.32;;
29218;SDS011;16421;50.202;7.852;2023-04-01T06:07:11;0.45;;;0.40;;
29218;SDS011;16421;50.202;7.852;2023-04-01T06:12:21;0.55;;;0.30;;
29218;SDS011;16421;50.202;7.852;2023-04-01T06:17:56;0.35;;;0.30;;
29218;SDS011;16421;50.202;7.852;2023-04-01T06:23:28;0.70;;;0.55;;
29218;SDS011;16421;50.202;7.852;2023-04-01T06:28:59;0.20;;;0.20;;
29218;SDS011;16421;50.202;7.852;2023-04-01T06:34:21;0.47;;;0.30;;
29218;SDS011;16421;50.202;7.852;2023-04-01T06:39:46;0.20;;;0.20;;
29218;SDS011;16421;50.202;7.852;2023-04-01T06:45:07;0.35;;;0.30;;
29218;SDS011;16421;50.202;7.852;2023-04-01T06:50:48;0.47;;;0.22;;
29218;SDS011;16421;50.202;7.852;2023-04-01T06:56:20;0.20;;;0.20;;
29218;SDS011;16421;50.202;7.852;2023-04-01T07:01:55;0.30;;;0.30;;
29218;SDS011;16421;50.202;7.852;2023-04-01T07:07:03;0.57;;;0.30;;
29218;SDS011;16421;50.202;7.852;2023-04-01T07:12:24;0.20;;;0.20;;
29218;SDS011;16421;50.202;7.852;2023-04-01T07:17:57;0.20;;;0.20;;
29218;SDS011;16421;50.202;7.852;2023-04-01T07:23:06;0.50;;;0.20;;
29218;SDS011;16421;50.202;7.852;2023-04-01T07:28:36;0.88;;;0.40;;
29218;SDS011;16421;50.202;7.852;2023-04-01T07:33:58;0.30;;;0.20;;
29218;SDS011;16421;50.202;7.852;2023-04-01T07:39:10;0.20;;;0.20;;
29218;SDS011;16421;50.202;7.852;2023-04-01T07:44:33;0.30;;;0.20;;
29218;SDS011;16421;50.202;7.852;2023-04-01T07:49:50;1.10;;;0.23;;
29218;SDS011;16421;50.202;7.852;2023-04-01T07:55:06;0.30;;;0.30;;
29218;SDS011;16421;50.202;7.852;2023-04-01T08:00:15;0.60;;;0.30;;
29218;SDS011;16421;50.202;7.852;2023-04-01T08:05:39;0.80;;;0.32;;
29218;SDS011;16421;50.202;7.852;2023-04-01T08:10:51;0.30;;;0.30;;
29218;SDS011;16421;50.202;7.852;2023-04-01T08:16:17;0.60;;;0.20;;
29218;SDS011;16421;50.202;7.852;2023-04-01T08:21:28;0.43;;;0.20;;
29218;SDS011;16421;50.202;7.852;2023-04-01T08:26:38;0.22;;;0.22;;
29218;SDS011;16421;50.202;7.852;2023-04-01T08:31:48;0.85;;;0.35;;
29218;SDS011;16421;50.202;7.852;2023-04-01T08:36:59;0.52;;;0.32;;
29218;SDS011;16421;50.202;7.852;2023-04-01T08:42:16;0.30;;;0.30;;
29218;SDS011;16421;50.202;7.852;2023-04-01T08:47:52;0.30;;;0.20;;
29218;SDS011;16421;50.202;7.852;2023-04-01T08:53:17;0.25;;;0.22;;
29218;SDS011;16421;50.202;7.852;2023-04-01T08:58:32;0.40;;;0.30;;
29218;SDS011;16421;50.202;7.852;2023-04-01T09:04:14;0.25;;;0.25;;
29218;SDS011;16421;50.202;7.852;2023-04-01T09:15:28;0.30;;;0.30;;
29218;SDS011;16421;50.202;7.852;2023-04-01T09:20:42;0.20;;;0.20;;
29218;SDS011;16421;50.202;7.852;2023-04-01T09:25:58;0.45;;;0.32;;
29218;SDS011;16421;50.202;7.852;2023-04-01T09:31:19;0.32;;;0.32;;
29218;SDS011;16421;50.202;7.852;2023-04-01T09:37:26;0.40;;;0.30;;
29218;SDS011;16421;50.202;7.852;2023-04-01T09:42:44;0.52;;;0.35;;
29218;SDS011;16421;50.202;7.852;2023-04-01T09:48:08;0.50;;;0.30;;
29218;SDS011;16421;50.202;7.852;2023-04-01T09:53:32;0.57;;;0.40;;
29218;SDS011;16421;50.202;7.852;2023-04-01T10:16:14;0.47;;;0.30;;
29218;SDS011;16421;50.202;7.852;2023-04-01T10:21:42;2.63;;;0.40;;
29218;SDS011;16421;50.202;7.852;2023-04-01T10:27:27;0.52;;;0.50;;
29218;SDS011;16421;50.202;7.852;2023-04-01T10:33:16;0.43;;;0.40;;
29218;SDS011;16421;50.202;7.852;2023-04-01T10:39:04;0.40;;;0.40;;
29218;SDS011;16421;50.202;7.852;2023-04-01T10:44:59;0.30;;;0.30;;
29218;SDS011;16421;50.202;7.852;2023-04-01T11:02:09;0.90;;;0.40;;
29218;SDS011;16421;50.202;7.852;2023-04-01T11:14:09;0.30;;;0.30;;
29218;SDS011;16421;50.202;7.852;2023-04-01T11:19:38;0.30;;;0.30;;
29218;SDS011;16421;50.202;7.852;2023-04-01T11:25:11;0.25;;;0.25;;
29218;SDS011;16421;50.202;7.852;2023-04-01T11:31:06;0.73;;;0.50;;
29218;SDS011;16421;50.202;7.852;2023-04-01T11:36:25;0.38;;;0.38;;
29218;SDS011;16421;50.202;7.852;2023-04-01T11:41:45;0.25;;;0.22;;
29218;SDS011;16421;50.202;7.852;2023-04-01T11:47:30;0.25;;;0.25;;
29218;SDS011;16421;50.202;7.852;2023-04-01T11:53:06;1.08;;;0.43;;
29218;SDS011;16421;50.202;7.852;2023-04-01T11:58:37;0.30;;;0.30;;
29218;SDS011;16421;50.202;7.852;2023-04-01T12:04:25;0.38;;;0.35;;
29218;SDS011;16421;50.202;7.852;2023-04-01T12:09:46;2.22;;;0.60;;
29218;SDS011;16421;50.202;7.852;2023-04-01T12:15:04;0.35;;;0.30;;
29218;SDS011;16421;50.202;7.852;2023-04-01T12:20:26;0.73;;;0.40;;
29218;SDS011;16421;50.202;7.852;2023-04-01T12:25:48;0.30;;;0.30;;
29218;SDS011;16421;50.202;7.852;2023-04-01T12:36:28;0.55;;;0.40;;
29218;SDS011;16421;50.202;7.852;2023-04-01T12:41:41;0.30;;;0.30;;
29218;SDS011;16421;50.202;7.852;2023-04-01T12:46:57;0.30;;;0.30;;
29218;SDS011;16421;50.202;7.852;2023-04-01T12:52:17;0.55;;;0.30;;
29218;SDS011;16421;50.202;7.852;2023-04-01T12:57:32;0.43;;;0.40;;
29218;SDS011;16421;50.202;7.852;2023-04-01T13:03:11;0.82;;;0.30;;
29218;SDS011;16421;50.202;7.852;2023-04-01T13:08:29;0.40;;;0.30;;
29218;SDS011;16421;50.202;7.852;2023-04-01T13:13:47;0.82;;;0.20;;
29218;SDS011;16421;50.202;7.852;2023-04-01T13:19:07;0.22;;;0.22;;
29218;SDS011;16421;50.202;7.852;2023-04-01T13:24:21;1.17;;;0.45;;
29218;SDS011;16421;50.202;7.852;2023-04-01T13:29:34;0.70;;;0.40;;
29218;SDS011;16421;50.202;7.852;2023-04-01T13:34:45;0.20;;;0.20;;
29218;SDS011;16421;50.202;7.852;2023-04-01T13:40:04;0.50;;;0.50;;
29218;SDS011;16421;50.202;7.852;2023-04-01T13:45:29;0.77;;;0.50;;
29218;SDS011;16421;50.202;7.852;2023-04-01T13:50:53;0.70;;;0.43;;
29218;SDS011;16421;50.202;7.852;2023-04-01T13:56:19;0.40;;;0.30;;
29218;SDS011;16421;50.202;7.852;2023-04-01T14:01:38;0.32;;;0.32;;
29218;SDS011;16421;50.202;7.852;2023-04-01T14:06:49;0.38;;;0.30;;
29218;SDS011;16421;50.202;7.852;2023-04-01T14:12:06;0.98;;;0.40;;
29218;SDS011;16421;50.202;7.852;2023-04-01T14:17:27;0.60;;;0.20;;
29218;SDS011;16421;50.202;7.852;2023-04-01T14:22:41;0.20;;;0.20;;
29218;SDS011;16421;50.202;7.852;2023-04-01T14:27:56;0.30;;;0.30;;
29218;SDS011;16421;50.202;7.852;2023-04-01T14:33:13;0.40;;;0.30;;
29218;SDS011;16421;50.202;7.852;2023-04-01T14:38:31;0.35;;;0.35;;
29218;SDS011;16421;50.202;7.852;2023-04-01T14:49:34;0.30;;;0.30;;
29218;SDS011;16421;50.202;7.852;2023-04-01T14:54:41;0.60;;;0.30;;
29218;SDS011;16421;50.202;7.852;2023-04-01T15:04:54;0.88;;;0.40;;
29218;SDS011;16421;50.202;7.852;2023-04-01T15:10:06;0.70;;;0.50;;
29218;SDS011;16421;50.202;7.852;2023-04-01T15:15:24;0.40;;;0.40;;
29218;SDS011;16421;50.202;7.852;2023-04-01T15:20:53;0.40;;;0.32;;
29218;SDS011;16421;50.202;7.852;2023-04-01T15:31:34;0.22;;;0.22;;
29218;SDS011;16421;50.202;7.852;2023-04-01T15:36:44;0.60;;;0.35;;
29218;SDS011;16421;50.202;7.852;2023-04-01T15:42:17;0.55;;;0.40;;
29218;SDS011;16421;50.202;7.852;2023-04-01T15:47:33;0.30;;;0.30;;
29218;SDS011;16421;50.202;7.852;2023-04-01T15:52:43;0.40;;;0.28;;
29218;SDS011;16421;50.202;7.852;2023-04-01T15:58:03;0.45;;;0.40;;
29218;SDS011;16421;50.202;7.852;2023-04-01T16:03:28;0.55;;;0.40;;
29218;SDS011;16421;50.202;7.852;2023-04-01T16:08:45;0.40;;;0.40;;
29218;SDS011;16421;50.202;7.852;2023-04-01T16:14:07;0.73;;;0.55;;
29218;SDS011;16421;50.202;7.852;2023-04-01T16:24:51;0.90;;;0.52;;
29218;SDS011;16421;50.202;7.852;2023-04-01T16:30:00;0.45;;;0.45;;
29218;SDS011;16421;50.202;7.852;2023-04-01T16:35:25;0.40;;;0.40;;
29218;SDS011;16421;50.202;7.852;2023-04-01T16:40:47;0.32;;;0.30;;
29218;SDS011;16421;50.202;7.852;2023-04-01T16:51:40;0.40;;;0.40;;
29218;SDS011;16421;50.202;7.852;2023-04-01T16:56:49;1.17;;;0.60;;
29218;SDS011;16421;50.202;7.852;2023-04-01T17:02:01;0.60;;;0.60;;
29218;SDS011;16421;50.202;7.852;2023-04-01T17:07:15;1.35;;;0.85;;
29218;SDS011;16421;50.202;7.852;2023-04-01T17:12:27;0.70;;;0.60;;
29218;SDS011;16421;50.202;7.852;2023-04-01T17:17:41;0.80;;;0.63;;
29218;SDS011;16421;50.202;7.852;2023-04-01T17:22:52;1.00;;;0.65;;
29218;SDS011;16421;50.202;7.852;2023-04-01T17:28:04;0.45;;;0.45;;
29218;SDS011;16421;50.202;7.852;2023-04-01T17:33:21;1.02;;;0.73;;
29218;SDS011;16421;50.202;7.852;2023-04-01T17:38:56;0.68;;;0.43;;
29218;SDS011;16421;50.202;7.852;2023-04-01T17:44:20;0.40;;;0.40;;
29218;SDS011;16421;50.202;7.852;2023-04-01T17:49:35;0.40;;;0.30;;
29218;SDS011;16421;50.202;7.852;2023-04-01T17:54:49;0.45;;;0.40;;
29218;SDS011;16421;50.202;7.852;2023-04-01T17:59:59;0.50;;;0.50;;
29218;SDS011;16421;50.202;7.852;2023-04-01T18:05:16;0.73;;;0.52;;
29218;SDS011;16421;50.202;7.852;2023-04-01T18:10:31;2.08;;;0.65;;
29218;SDS011;16421;50.202;7.852;2023-04-01T18:15:49;1.77;;;1.10;;
29218;SDS011;16421;50.202;7.852;2023-04-01T18:21:04;1.50;;;1.27;;
29218;SDS011;16421;50.202;7.852;2023-04-01T18:26:20;0.65;;;0.65;;
29218;SDS011;16421;50.202;7.852;2023-04-01T18:31:31;0.68;;;0.60;;
29218;SDS011;16421;50.202;7.852;2023-04-01T18:36:42;0.63;;;0.50;;
29218;SDS011;16421;50.202;7.852;2023-04-01T18:41:53;1.08;;;0.80;;
29218;SDS011;16421;50.202;7.852;2023-04-01T18:47:05;0.35;;;0.35;;
29218;SDS011;16421;50.202;7.852;2023-04-01T18:52:26;0.60;;;0.47;;
29218;SDS011;16421;50.202;7.852;2023-04-01T18:57:40;0.68;;;0.55;;
29218;SDS011;16421;50.202;7.852;2023-04-01T19:02:50;0.57;;;0.55;;
29218;SDS011;16421;50.202;7.852;2023-04-01T19:13:24;2.28;;;1.00;;
29218;SDS011;16421;50.202;7.852;2023-04-01T19:18:39;0.73;;;0.70;;
29218;SDS011;16421;50.202;7.852;2023-04-01T19:24:11;1.30;;;0.73;;
29218;SDS011;16421;50.202;7.852;2023-04-01T19:29:42;0.55;;;0.50;;
29218;SDS011;16421;50.202;7.852;2023-04-01T19:35:03;1.00;;;0.90;;
29218;SDS011;16421;50.202;7.852;2023-04-01T19:40:32;0.68;;;0.68;;
29218;SDS011;16421;50.202;7.852;2023-04-01T19:45:59;0.63;;;0.57;;
29218;SDS011;16421;50.202;7.852;2023-04-01T19:51:11;1.08;;;0.63;;
29218;SDS011;16421;50.202;7.852;2023-04-01T19:56:21;1.27;;;0.93;;
29218;SDS011;16421;50.202;7.852;2023-04-01T20:01:34;1.35;;;0.82;;
29218;SDS011;16421;50.202;7.852;2023-04-01T20:06:46;0.82;;;0.70;;
29218;SDS011;16421;50.202;7.852;2023-04-01T20:11:58;1.10;;;0.65;;
29218;SDS011;16421;50.202;7.852;2023-04-01T20:17:15;1.10;;;0.70;;
29218;SDS011;16421;50.202;7.852;2023-04-01T20:22:29;1.15;;;0.80;;
29218;SDS011;16421;50.202;7.852;2023-04-01T20:27:42;0.75;;;0.70;;
29218;SDS011;16421;50.202;7.852;2023-04-01T20:32:57;1.02;;;0.90;;
29218;SDS011;16421;50.202;7.852;2023-04-01T20:38:18;1.67;;;1.40;;
29218;SDS011;16421;50.202;7.852;2023-04-01T20:43:44;2.28;;;1.30;;
29218;SDS011;16421;50.202;7.852;2023-04-01T20:54:42;2.00;;;1.50;;
29218;SDS011;16421;50.202;7.852;2023-04-01T20:59:57;2.55;;;1.20;;
29218;SDS011;16421;50.202;7.852;2023-04-01T21:11:01;1.00;;;0.63;;
29218;SDS011;16421;50.202;7.852;2023-04-01T21:16:15;0.65;;;0.55;;
29218;SDS011;16421;50.202;7.852;2023-04-01T21:26:43;2.22;;;0.50;;
29218;SDS011;16421;50.202;7.852;2023-04-01T21:32:00;0.52;;;0.50;;
29218;SDS011;16421;50.202;7.852;2023-04-01T21:37:30;0.47;;;0.40;;
29218;SDS011;16421;50.202;7.852;2023-04-01T21:42:47;0.63;;;0.50;;
29218;SDS011;16421;50.202;7.852;2023-04-01T21:53:35;0.50;;;0.43;;
29218;SDS011;16421;50.202;7.852;2023-04-01T21:59:11;0.40;;;0.40;;
29218;SDS011;16421;50.202;7.852;2023-04-01T22:04:49;0.60;;;0.40;;
29218;SDS011;16421;50.202;7.852;2023-04-01T22:10:01;0.40;;;0.40;;
29218;SDS011;16421;50.202;7.852;2023-04-01T22:15:15;0.40;;;0.40;;
29218;SDS011;16421;50.202;7.852;2023-04-01T22:20:25;0.38;;;0.38;;
29218;SDS011;16421;50.202;7.852;2023-04-01T22:25:34;0.30;;;0.30;;
29218;SDS011;16421;50.202;7.852;2023-04-01T22:30:45;0.63;;;0.38;;
29218;SDS011;16421;50.202;7.852;2023-04-01T22:35:54;1.13;;;0.30;;
29218;SDS011;16421;50.202;7.852;2023-04-01T22:41:06;0.30;;;0.30;;
29218;SDS011;16421;50.202;7.852;2023-04-01T22:51:51;0.70;;;0.50;;
29218;SDS011;16421;50.202;7.852;2023-04-01T22:57:00;0.40;;;0.40;;
29218;SDS011;16421;50.202;7.852;2023-04-01T23:02:11;0.30;;;0.30;;
29218;SDS011;16421;50.202;7.852;2023-04-01T23:07:27;0.30;;;0.30;;
29218;SDS011;16421;50.202;7.852;2023-04-01T23:12:49;0.30;;;0.30;;
29218;SDS011;16421;50.202;7.852;2023-04-01T23:18:01;0.30;;;0.30;;
29218;SDS011;16421;50.202;7.852;2023-04-01T23:23:23;0.65;;;0.30;;
29218;SDS011;16421;50.202;7.852;2023-04-01T23:33:58;0.45;;;0.45;;
29218;SDS011;16421;50.202;7.852;2023-04-01T23:39:06;0.30;;;0.30;;
29218;SDS011;16421;50.202;7.852;2023-04-01T23:44:20;0.40;;;0.40;;
29218;SDS011;16421;50.202;7.852;2023-04-01T23:49:30;1.00;;;0.53;;
29218;SDS011;16421;50.202;7.852;2023-04-01T23:54:39;1.38;;;0.50;;
29218;SDS011;16421;50.202;7.852;2023-04-01T23:59:58;0.40;;;0.40;;
